createdAt,value
2022-12-08T00:02:13.260Z,8.40
2022-12-08T00:07:15.289Z,7.32
2022-12-08T00:12:17.190Z,7.22
2022-12-08T00:17:18.982Z,7.68
2022-12-08T00:22:20.946Z,6.40
2022-12-08T00:27:22.988Z,5.88
2022-12-08T00:32:24.919Z,7.75
2022-12-08T00:37:26.766Z,7.72
2022-12-08T00:42:28.615Z,7.53
2022-12-08T00:47:30.537Z,5.72
2022-12-08T00:52:32.532Z,6.05
2022-12-08T00:57:34.443Z,6.10
2022-12-08T01:02:36.270Z,6.40
2022-12-08T01:07:38.150Z,7.47
2022-12-08T01:12:40.011Z,7.15
2022-12-08T01:17:41.855Z,5.57
2022-12-08T01:22:43.676Z,6.45
2022-12-08T01:27:45.488Z,6.55
2022-12-08T01:32:47.440Z,7.38
2022-12-08T01:37:50.437Z,8.88
2022-12-08T01:42:52.301Z,7.20
2022-12-08T01:47:56.928Z,8.27
2022-12-08T01:53:04.287Z,6.90
2022-12-08T01:58:11.498Z,7.05
2022-12-08T02:03:18.763Z,7.38
2022-12-08T02:08:20.839Z,7.38
2022-12-08T02:13:23.111Z,7.70
2022-12-08T02:18:53.751Z,8.07
2022-12-08T02:24:17.988Z,7.95
2022-12-08T02:29:48.954Z,6.93
2022-12-08T02:35:40.120Z,7.43
2022-12-08T02:41:04.451Z,9.02
2022-12-08T02:46:09.016Z,7.72
2022-12-08T02:51:10.964Z,9.43
2022-12-08T02:56:27.623Z,8.82
2022-12-08T03:01:41.575Z,8.45
2022-12-08T03:07:32.904Z,8.95
2022-12-08T03:12:49.644Z,9.20
2022-12-08T03:17:54.992Z,9.18
2022-12-08T03:22:57.533Z,8.10
2022-12-08T03:27:59.672Z,9.63
2022-12-08T03:33:16.147Z,8.68
2022-12-08T03:38:18.214Z,8.32
2022-12-08T03:43:20.142Z,8.25
2022-12-08T03:48:22.038Z,9.77
2022-12-08T03:53:23.885Z,9.00
2022-12-08T03:58:25.701Z,8.15
2022-12-08T04:03:27.624Z,6.22
2022-12-08T04:08:29.651Z,6.80
2022-12-08T04:13:31.649Z,8.60
2022-12-08T04:18:34.034Z,8.57
2022-12-08T04:28:37.812Z,9.00
2022-12-08T04:33:39.804Z,8.40
2022-12-08T04:38:41.638Z,7.28
2022-12-08T04:43:43.501Z,9.45
2022-12-08T04:48:45.324Z,8.73
2022-12-08T04:53:47.493Z,9.50
2022-12-08T04:58:49.343Z,9.00
2022-12-08T05:03:51.216Z,7.82
2022-12-08T05:08:53.064Z,7.55
2022-12-08T05:13:54.862Z,8.20
2022-12-08T05:18:56.655Z,8.02
2022-12-08T05:23:58.458Z,8.75
2022-12-08T05:29:00.282Z,8.50
2022-12-08T05:34:03.331Z,8.60
2022-12-08T05:39:05.521Z,7.68
2022-12-08T05:44:07.370Z,8.77
2022-12-08T05:49:09.277Z,6.70
2022-12-08T05:54:11.133Z,8.98
2022-12-08T05:59:12.989Z,6.65
2022-12-08T06:04:14.814Z,6.97
2022-12-08T06:09:16.601Z,6.65
2022-12-08T06:14:18.469Z,7.72
2022-12-08T06:19:20.248Z,8.18
2022-12-08T06:24:22.168Z,6.73
2022-12-08T06:29:23.975Z,7.80
2022-12-08T06:34:25.786Z,8.63
2022-12-08T06:39:27.638Z,9.07
2022-12-08T06:44:29.501Z,7.80
2022-12-08T06:49:31.308Z,8.07
2022-12-08T06:54:33.058Z,7.40
2022-12-08T06:59:34.946Z,6.37
2022-12-08T07:04:36.882Z,8.05
2022-12-08T07:09:38.787Z,7.85
2022-12-08T07:14:40.609Z,7.97
2022-12-08T07:19:42.467Z,7.35
2022-12-08T07:24:44.241Z,7.22
2022-12-08T07:29:45.979Z,7.00
2022-12-08T07:34:47.845Z,7.37
2022-12-08T07:39:49.651Z,7.85
2022-12-08T07:44:51.421Z,7.75
2022-12-08T07:49:53.267Z,7.75
2022-12-08T07:54:55.054Z,7.43
2022-12-08T07:59:56.830Z,6.90
2022-12-08T08:04:58.720Z,5.73
2022-12-08T08:10:00.571Z,5.82
2022-12-08T08:15:02.901Z,6.90
2022-12-08T08:20:06.703Z,7.32
2022-12-08T08:25:09.171Z,6.90
2022-12-08T08:30:18.135Z,7.18
2022-12-08T08:35:22.048Z,7.18
2022-12-08T08:40:24.008Z,5.63
2022-12-08T08:45:25.795Z,7.50
2022-12-08T08:50:30.472Z,6.70
2022-12-08T08:55:34.764Z,7.25
2022-12-08T09:00:36.619Z,7.95
2022-12-08T09:05:39.116Z,6.00
2022-12-08T09:10:41.018Z,7.22
2022-12-08T09:15:42.964Z,7.85
2022-12-08T09:20:44.847Z,8.20
2022-12-08T09:25:46.772Z,6.50
2022-12-08T09:30:48.781Z,6.57
2022-12-08T09:35:50.781Z,6.78
2022-12-08T09:40:53.262Z,6.53
2022-12-08T09:45:55.016Z,5.93
2022-12-08T09:50:57.449Z,6.20
2022-12-08T10:01:01.353Z,8.00
2022-12-08T10:06:27.787Z,7.72
2022-12-08T10:11:46.845Z,7.05
2022-12-08T10:16:49.835Z,8.02
2022-12-08T10:21:51.788Z,6.80
2022-12-08T10:26:54.122Z,6.68
2022-12-08T10:31:59.255Z,7.63
2022-12-08T10:37:01.095Z,7.85
2022-12-08T10:42:06.663Z,8.20
2022-12-08T10:47:12.577Z,7.65
2022-12-08T10:52:24.031Z,6.35
2022-12-08T10:57:25.877Z,7.50
2022-12-08T11:02:27.823Z,6.57
2022-12-08T11:07:29.761Z,8.70
2022-12-08T11:12:31.562Z,8.80
2022-12-08T11:17:37.349Z,6.60
2022-12-08T11:22:43.295Z,8.10
2022-12-08T11:27:46.677Z,8.43
2022-12-08T11:32:57.350Z,8.60
2022-12-08T11:38:20.522Z,7.57
2022-12-08T11:43:28.891Z,8.48
2022-12-08T11:48:33.406Z,7.85
2022-12-08T11:53:58.801Z,7.15
2022-12-08T11:59:20.718Z,8.07
2022-12-08T12:04:41.198Z,8.52
2022-12-08T12:09:57.982Z,8.80
2022-12-08T12:15:37.977Z,15.23
2022-12-08T12:20:48.464Z,7.45
2022-12-08T12:25:59.820Z,7.85
2022-12-08T12:31:03.450Z,8.38
2022-12-08T12:36:06.846Z,8.13
2022-12-08T12:41:08.664Z,7.80
2022-12-08T12:46:25.662Z,8.47
2022-12-08T12:51:56.981Z,10.02
2022-12-08T12:57:04.775Z,7.25
2022-12-08T13:02:18.103Z,10.52
2022-12-08T13:07:25.092Z,7.78
2022-12-08T13:12:26.898Z,8.73
2022-12-08T13:17:33.492Z,6.37
2022-12-08T13:22:53.577Z,8.50
2022-12-08T13:27:56.720Z,8.32
2022-12-08T13:38:21.472Z,9.00
2022-12-08T13:43:45.047Z,8.23
2022-12-08T14:00:15.098Z,9.35
2022-12-08T14:05:19.512Z,9.93
2022-12-08T14:10:37.172Z,9.35
2022-12-08T14:15:39.810Z,10.20
2022-12-08T14:21:12.637Z,9.82
2022-12-08T14:26:07.868Z,9.68
2022-12-08T14:31:09.808Z,10.52
2022-12-08T14:36:19.231Z,8.77
2022-12-08T14:41:25.519Z,10.05
2022-12-08T14:46:27.681Z,10.95
2022-12-08T14:51:31.207Z,11.40
2022-12-08T14:56:47.797Z,9.68
2022-12-08T15:01:51.158Z,10.60
2022-12-08T15:06:59.898Z,10.70
2022-12-08T15:12:13.078Z,10.48
2022-12-08T15:17:47.476Z,10.88
2022-12-08T15:22:49.360Z,10.80
2022-12-08T15:27:52.132Z,9.30
2022-12-08T15:32:54.088Z,11.13
2022-12-08T15:37:55.956Z,9.30
2022-12-08T15:42:58.028Z,11.17
2022-12-08T15:47:59.955Z,12.10
2022-12-08T15:53:01.962Z,10.38
2022-12-08T15:58:51.934Z,8.00
2022-12-08T16:09:06.129Z,10.98
2022-12-08T16:15:01.936Z,11.45
2022-12-08T16:19:37.170Z,12.60
2022-12-08T16:24:39.397Z,9.13
2022-12-08T16:29:41.225Z,12.40
2022-12-08T16:34:43.649Z,11.90
2022-12-08T16:44:48.266Z,11.90
2022-12-08T16:49:50.189Z,9.55
2022-12-08T16:54:52.198Z,13.05
2022-12-08T16:59:54.093Z,13.02
2022-12-08T17:04:56.206Z,13.23
2022-12-08T17:09:58.777Z,12.60
2022-12-08T17:15:03.045Z,14.43
2022-12-08T17:20:12.161Z,12.93
2022-12-08T17:25:15.173Z,12.23
2022-12-08T17:30:17.193Z,13.35
2022-12-08T17:35:19.118Z,13.40
2022-12-08T17:40:21.314Z,13.35
2022-12-08T17:45:23.207Z,12.60
2022-12-08T17:50:25.080Z,12.67
2022-12-08T17:55:26.966Z,11.93
2022-12-08T18:00:28.883Z,13.85
2022-12-08T18:05:31.350Z,12.50
2022-12-08T18:10:33.239Z,12.32
2022-12-08T18:15:39.161Z,11.00
2022-12-08T18:20:41.301Z,11.77
2022-12-08T18:25:43.655Z,11.90
2022-12-08T18:30:45.466Z,12.20
2022-12-08T18:35:47.418Z,10.47
2022-12-08T18:40:49.234Z,13.40
2022-12-08T18:45:51.246Z,12.17
2022-12-08T18:50:53.205Z,11.10
2022-12-08T18:55:55.015Z,12.27
2022-12-08T19:00:56.956Z,13.00
2022-12-08T19:06:03.568Z,9.60
2022-12-08T19:11:05.997Z,12.43
2022-12-08T19:16:08.259Z,11.90
2022-12-08T19:21:10.484Z,12.20
2022-12-08T19:26:12.350Z,11.07
2022-12-08T19:31:14.180Z,12.47
2022-12-08T19:36:17.453Z,9.30
2022-12-08T19:41:19.280Z,11.32
2022-12-08T19:46:21.285Z,12.07
2022-12-08T19:51:23.342Z,11.70
2022-12-08T19:56:25.200Z,11.87
2022-12-08T20:01:27.178Z,10.25
2022-12-08T20:06:29.167Z,8.85
2022-12-08T20:11:31.014Z,12.45
2022-12-08T20:16:38.919Z,9.57
2022-12-08T20:21:40.859Z,12.18
2022-12-08T20:26:42.795Z,11.27
2022-12-08T20:31:44.931Z,13.33
2022-12-08T20:36:58.691Z,12.00
2022-12-08T20:42:00.613Z,12.90
2022-12-08T20:47:02.705Z,11.50
2022-12-08T20:52:04.845Z,13.85
2022-12-08T20:57:06.964Z,12.25
2022-12-08T21:02:10.683Z,11.35
2022-12-08T21:07:12.708Z,12.23
2022-12-08T21:12:14.786Z,12.10
2022-12-08T21:17:16.705Z,11.63
2022-12-08T21:22:19.024Z,12.52
2022-12-08T21:27:21.027Z,12.57
2022-12-08T21:32:28.625Z,11.38
2022-12-08T21:37:32.267Z,13.35
2022-12-08T21:42:34.607Z,12.35
2022-12-08T21:52:42.712Z,13.02
2022-12-08T21:57:44.772Z,13.35
2022-12-08T22:02:47.061Z,11.40
2022-12-08T22:07:49.123Z,14.60
2022-12-08T22:12:51.367Z,14.30
2022-12-08T22:17:53.410Z,10.65
2022-12-08T22:22:55.306Z,10.90
2022-12-08T22:27:57.167Z,15.00
2022-12-08T22:32:58.938Z,16.10
2022-12-08T22:38:01.058Z,15.47
2022-12-08T22:43:02.925Z,15.60
2022-12-08T22:48:05.197Z,16.27
2022-12-08T22:53:07.487Z,16.38
2022-12-08T22:58:10.330Z,15.32
2022-12-08T23:03:12.345Z,15.25
2022-12-08T23:08:15.283Z,16.80
2022-12-08T23:13:17.383Z,15.82
2022-12-08T23:18:19.634Z,17.08
2022-12-08T23:28:23.819Z,14.27
2022-12-08T23:33:25.958Z,17.42
2022-12-08T23:38:27.890Z,16.88
2022-12-08T23:43:29.970Z,17.50
2022-12-08T23:48:31.980Z,16.58
2022-12-08T23:53:34.051Z,17.38
2022-12-08T23:58:36.156Z,17.20
